sensor_id;sensor_type;location;lat;lon;timestamp;P1;durP1;ratioP1;P2;durP2;ratioP2
50531;SDS011;36483;37.396;-122.212;2022-11-21T00:01:24;11.73;;;5.13;;
50531;SDS011;36483;37.396;-122.212;2022-11-21T00:03:51;9.40;;;5.10;;
50531;SDS011;36483;37.396;-122.212;2022-11-21T00:06:18;11.32;;;4.93;;
50531;SDS011;36483;37.396;-122.212;2022-11-21T00:08:44;9.93;;;5.38;;
50531;SDS011;36483;37.396;-122.212;2022-11-21T00:11:11;14.00;;;5.28;;
50531;SDS011;36483;37.396;-122.212;2022-11-21T00:13:37;9.20;;;4.90;;
50531;SDS011;36483;37.396;-122.212;2022-11-21T00:16:04;10.65;;;4.88;;
50531;SDS011;36483;37.396;-122.212;2022-11-21T00:18:32;11.02;;;5.13;;
50531;SDS011;36483;37.396;-122.212;2022-11-21T00:21:05;10.48;;;5.50;;
50531;SDS011;36483;37.396;-122.212;2022-11-21T00:23:32;9.68;;;5.43;;
50531;SDS011;36483;37.396;-122.212;2022-11-21T00:25:58;8.07;;;5.10;;
50531;SDS011;36483;37.396;-122.212;2022-11-21T00:28:29;10.05;;;5.07;;
50531;SDS011;36483;37.396;-122.212;2022-11-21T00:30:55;13.40;;;6.63;;
50531;SDS011;36483;37.396;-122.212;2022-11-21T00:33:21;13.75;;;6.90;;
50531;SDS011;36483;37.396;-122.212;2022-11-21T00:35:48;14.18;;;6.80;;
50531;SDS011;36483;37.396;-122.212;2022-11-21T00:38:14;12.57;;;6.57;;
50531;SDS011;36483;37.396;-122.212;2022-11-21T00:40:43;12.02;;;7.32;;
50531;SDS011;36483;37.396;-122.212;2022-11-21T00:43:10;14.90;;;8.10;;
50531;SDS011;36483;37.396;-122.212;2022-11-21T00:45:36;13.02;;;7.38;;
50531;SDS011;36483;37.396;-122.212;2022-11-21T00:48:02;13.05;;;7.53;;
50531;SDS011;36483;37.396;-122.212;2022-11-21T00:50:28;13.35;;;7.45;;
50531;SDS011;36483;37.396;-122.212;2022-11-21T00:52:55;13.50;;;6.63;;
50531;SDS011;36483;37.396;-122.212;2022-11-21T00:55:22;10.82;;;6.40;;
50531;SDS011;36483;37.396;-122.212;2022-11-21T00:57:48;10.82;;;6.00;;
50531;SDS011;36483;37.396;-122.212;2022-11-21T01:00:15;12.20;;;6.47;;
50531;SDS011;36483;37.396;-122.212;2022-11-21T01:02:42;12.15;;;6.45;;
50531;SDS011;36483;37.396;-122.212;2022-11-21T01:05:08;9.95;;;6.22;;
50531;SDS011;36483;37.396;-122.212;2022-11-21T01:07:34;14.07;;;7.35;;
50531;SDS011;36483;37.396;-122.212;2022-11-21T01:10:00;12.70;;;6.32;;
50531;SDS011;36483;37.396;-122.212;2022-11-21T01:12:26;14.80;;;6.93;;
50531;SDS011;36483;37.396;-122.212;2022-11-21T01:14:52;11.40;;;6.65;;
50531;SDS011;36483;37.396;-122.212;2022-11-21T01:17:18;16.02;;;6.90;;
50531;SDS011;36483;37.396;-122.212;2022-11-21T01:19:44;11.55;;;5.80;;
50531;SDS011;36483;37.396;-122.212;2022-11-21T01:22:11;10.93;;;6.05;;
50531;SDS011;36483;37.396;-122.212;2022-11-21T01:24:37;13.35;;;6.85;;
50531;SDS011;36483;37.396;-122.212;2022-11-21T01:27:03;15.88;;;6.72;;
50531;SDS011;36483;37.396;-122.212;2022-11-21T01:29:29;10.95;;;6.35;;
50531;SDS011;36483;37.396;-122.212;2022-11-21T01:31:55;11.25;;;5.80;;
50531;SDS011;36483;37.396;-122.212;2022-11-21T01:34:21;10.00;;;5.65;;
50531;SDS011;36483;37.396;-122.212;2022-11-21T01:36:47;8.85;;;5.22;;
50531;SDS011;36483;37.396;-122.212;2022-11-21T01:39:13;9.02;;;4.72;;
50531;SDS011;36483;37.396;-122.212;2022-11-21T01:41:41;9.68;;;4.97;;
50531;SDS011;36483;37.396;-122.212;2022-11-21T01:44:10;6.55;;;4.50;;
50531;SDS011;36483;37.396;-122.212;2022-11-21T01:46:44;8.97;;;4.50;;
50531;SDS011;36483;37.396;-122.212;2022-11-21T01:49:24;8.35;;;4.18;;
50531;SDS011;36483;37.396;-122.212;2022-11-21T01:54:51;7.70;;;4.20;;
50531;SDS011;36483;37.396;-122.212;2022-11-21T01:57:25;9.45;;;4.22;;
50531;SDS011;36483;37.396;-122.212;2022-11-21T02:02:52;9.50;;;4.30;;
50531;SDS011;36483;37.396;-122.212;2022-11-21T02:05:22;7.90;;;4.40;;
50531;SDS011;36483;37.396;-122.212;2022-11-21T02:07:51;7.68;;;4.28;;
50531;SDS011;36483;37.396;-122.212;2022-11-21T02:10:22;8.35;;;4.43;;
50531;SDS011;36483;37.396;-122.212;2022-11-21T02:12:52;6.82;;;4.47;;
50531;SDS011;36483;37.396;-122.212;2022-11-21T02:15:22;5.38;;;3.60;;
50531;SDS011;36483;37.396;-122.212;2022-11-21T02:17:50;7.38;;;4.40;;
50531;SDS011;36483;37.396;-122.212;2022-11-21T02:20:16;8.30;;;4.75;;
50531;SDS011;36483;37.396;-122.212;2022-11-21T02:25:29;9.18;;;5.50;;
50531;SDS011;36483;37.396;-122.212;2022-11-21T02:27:57;8.80;;;5.35;;
50531;SDS011;36483;37.396;-122.212;2022-11-21T02:30:28;7.78;;;5.32;;
50531;SDS011;36483;37.396;-122.212;2022-11-21T02:32:56;8.25;;;4.95;;
50531;SDS011;36483;37.396;-122.212;2022-11-21T02:35:22;8.13;;;4.55;;
50531;SDS011;36483;37.396;-122.212;2022-11-21T02:37:58;8.48;;;4.95;;
50531;SDS011;36483;37.396;-122.212;2022-11-21T02:41:08;7.90;;;4.82;;
50531;SDS011;36483;37.396;-122.212;2022-11-21T02:43:19;8.32;;;4.75;;
50531;SDS011;36483;37.396;-122.212;2022-11-21T02:45:48;7.47;;;4.95;;
50531;SDS011;36483;37.396;-122.212;2022-11-21T02:48:14;7.18;;;4.15;;
50531;SDS011;36483;37.396;-122.212;2022-11-21T02:50:41;8.60;;;4.85;;
50531;SDS011;36483;37.396;-122.212;2022-11-21T02:53:10;7.50;;;4.97;;
50531;SDS011;36483;37.396;-122.212;2022-11-21T02:55:38;8.13;;;4.70;;
50531;SDS011;36483;37.396;-122.212;2022-11-21T02:58:04;8.13;;;4.63;;
50531;SDS011;36483;37.396;-122.212;2022-11-21T03:00:31;7.38;;;4.70;;
50531;SDS011;36483;37.396;-122.212;2022-11-21T03:02:58;6.63;;;3.90;;
50531;SDS011;36483;37.396;-122.212;2022-11-21T03:05:26;8.15;;;4.38;;
50531;SDS011;36483;37.396;-122.212;2022-11-21T03:08:00;8.50;;;5.00;;
50531;SDS011;36483;37.396;-122.212;2022-11-21T03:10:26;10.02;;;4.90;;
50531;SDS011;36483;37.396;-122.212;2022-11-21T03:12:52;9.02;;;5.45;;
50531;SDS011;36483;37.396;-122.212;2022-11-21T03:15:25;9.05;;;4.80;;
50531;SDS011;36483;37.396;-122.212;2022-11-21T03:17:53;7.07;;;4.65;;
50531;SDS011;36483;37.396;-122.212;2022-11-21T03:20:19;8.65;;;4.95;;
50531;SDS011;36483;37.396;-122.212;2022-11-21T03:22:45;8.77;;;4.60;;
50531;SDS011;36483;37.396;-122.212;2022-11-21T03:25:11;7.95;;;4.75;;
50531;SDS011;36483;37.396;-122.212;2022-11-21T03:27:37;7.55;;;4.65;;
50531;SDS011;36483;37.396;-122.212;2022-11-21T03:30:03;9.02;;;5.20;;
50531;SDS011;36483;37.396;-122.212;2022-11-21T03:32:30;6.80;;;4.30;;
50531;SDS011;36483;37.396;-122.212;2022-11-21T03:34:56;8.80;;;4.80;;
50531;SDS011;36483;37.396;-122.212;2022-11-21T03:37:22;10.05;;;4.95;;
50531;SDS011;36483;37.396;-122.212;2022-11-21T03:39:48;8.38;;;4.90;;
50531;SDS011;36483;37.396;-122.212;2022-11-21T03:42:14;10.43;;;4.60;;
50531;SDS011;36483;37.396;-122.212;2022-11-21T03:44:40;7.53;;;4.70;;
50531;SDS011;36483;37.396;-122.212;2022-11-21T03:47:06;7.85;;;4.82;;
50531;SDS011;36483;37.396;-122.212;2022-11-21T03:49:32;7.28;;;4.55;;
50531;SDS011;36483;37.396;-122.212;2022-11-21T03:51:58;7.65;;;4.85;;
50531;SDS011;36483;37.396;-122.212;2022-11-21T03:54:24;7.72;;;4.78;;
50531;SDS011;36483;37.396;-122.212;2022-11-21T03:56:51;7.90;;;4.63;;
50531;SDS011;36483;37.396;-122.212;2022-11-21T03:59:17;8.82;;;4.60;;
50531;SDS011;36483;37.396;-122.212;2022-11-21T04:01:43;7.35;;;4.80;;
50531;SDS011;36483;37.396;-122.212;2022-11-21T04:04:09;10.00;;;4.70;;
50531;SDS011;36483;37.396;-122.212;2022-11-21T04:06:35;8.70;;;4.90;;
50531;SDS011;36483;37.396;-122.212;2022-11-21T04:09:01;7.70;;;4.97;;
50531;SDS011;36483;37.396;-122.212;2022-11-21T04:11:27;7.47;;;5.00;;
50531;SDS011;36483;37.396;-122.212;2022-11-21T04:13:53;8.23;;;5.25;;
50531;SDS011;36483;37.396;-122.212;2022-11-21T04:16:20;9.00;;;5.30;;
50531;SDS011;36483;37.396;-122.212;2022-11-21T04:18:46;13.25;;;5.88;;
50531;SDS011;36483;37.396;-122.212;2022-11-21T04:21:12;12.07;;;6.72;;
50531;SDS011;36483;37.396;-122.212;2022-11-21T04:23:38;11.18;;;6.10;;
50531;SDS011;36483;37.396;-122.212;2022-11-21T04:26:04;11.13;;;6.25;;
50531;SDS011;36483;37.396;-122.212;2022-11-21T04:28:30;8.88;;;5.70;;
50531;SDS011;36483;37.396;-122.212;2022-11-21T04:31:00;10.43;;;6.38;;
50531;SDS011;36483;37.396;-122.212;2022-11-21T04:33:32;9.90;;;6.35;;
50531;SDS011;36483;37.396;-122.212;2022-11-21T04:36:18;9.75;;;6.03;;
50531;SDS011;36483;37.396;-122.212;2022-11-21T04:38:44;10.45;;;6.63;;
50531;SDS011;36483;37.396;-122.212;2022-11-21T04:41:11;9.80;;;6.43;;
50531;SDS011;36483;37.396;-122.212;2022-11-21T04:43:37;10.70;;;6.65;;
50531;SDS011;36483;37.396;-122.212;2022-11-21T04:46:03;10.55;;;6.05;;
50531;SDS011;36483;37.396;-122.212;2022-11-21T04:48:29;11.43;;;6.25;;
50531;SDS011;36483;37.396;-122.212;2022-11-21T04:50:56;10.25;;;6.43;;
50531;SDS011;36483;37.396;-122.212;2022-11-21T04:53:22;9.00;;;6.47;;
50531;SDS011;36483;37.396;-122.212;2022-11-21T04:55:49;11.35;;;6.93;;
50531;SDS011;36483;37.396;-122.212;2022-11-21T04:58:15;10.45;;;6.53;;
50531;SDS011;36483;37.396;-122.212;2022-11-21T05:00:41;11.55;;;6.28;;
50531;SDS011;36483;37.396;-122.212;2022-11-21T05:03:07;10.68;;;6.70;;
50531;SDS011;36483;37.396;-122.212;2022-11-21T05:05:33;10.18;;;6.55;;
50531;SDS011;36483;37.396;-122.212;2022-11-21T05:07:59;11.68;;;7.35;;
50531;SDS011;36483;37.396;-122.212;2022-11-21T05:10:25;11.60;;;6.30;;
50531;SDS011;36483;37.396;-122.212;2022-11-21T05:12:58;9.70;;;6.97;;
50531;SDS011;36483;37.396;-122.212;2022-11-21T05:15:43;13.27;;;7.68;;
50531;SDS011;36483;37.396;-122.212;2022-11-21T05:18:09;12.30;;;7.68;;
50531;SDS011;36483;37.396;-122.212;2022-11-21T05:20:35;15.13;;;7.63;;
50531;SDS011;36483;37.396;-122.212;2022-11-21T05:23:02;10.77;;;7.85;;
50531;SDS011;36483;37.396;-122.212;2022-11-21T05:25:28;14.02;;;9.20;;
50531;SDS011;36483;37.396;-122.212;2022-11-21T05:27:54;19.20;;;9.90;;
50531;SDS011;36483;37.396;-122.212;2022-11-21T05:30:21;16.33;;;9.65;;
50531;SDS011;36483;37.396;-122.212;2022-11-21T05:32:47;16.27;;;9.75;;
50531;SDS011;36483;37.396;-122.212;2022-11-21T05:35:13;13.70;;;7.43;;
50531;SDS011;36483;37.396;-122.212;2022-11-21T05:37:39;13.43;;;7.88;;
50531;SDS011;36483;37.396;-122.212;2022-11-21T05:40:05;12.98;;;8.23;;
50531;SDS011;36483;37.396;-122.212;2022-11-21T05:42:33;12.13;;;6.93;;
50531;SDS011;36483;37.396;-122.212;2022-11-21T05:45:22;11.18;;;6.80;;
50531;SDS011;36483;37.396;-122.212;2022-11-21T05:47:48;7.68;;;5.35;;
50531;SDS011;36483;37.396;-122.212;2022-11-21T05:50:14;8.48;;;5.78;;
50531;SDS011;36483;37.396;-122.212;2022-11-21T05:52:40;7.95;;;5.13;;
50531;SDS011;36483;37.396;-122.212;2022-11-21T05:55:07;10.15;;;5.65;;
50531;SDS011;36483;37.396;-122.212;2022-11-21T05:57:33;8.48;;;5.40;;
50531;SDS011;36483;37.396;-122.212;2022-11-21T05:59:59;9.68;;;5.40;;
50531;SDS011;36483;37.396;-122.212;2022-11-21T06:02:25;11.00;;;5.60;;
50531;SDS011;36483;37.396;-122.212;2022-11-21T06:05:09;9.07;;;5.13;;
50531;SDS011;36483;37.396;-122.212;2022-11-21T06:07:35;7.00;;;4.82;;
50531;SDS011;36483;37.396;-122.212;2022-11-21T06:10:01;9.20;;;5.43;;
50531;SDS011;36483;37.396;-122.212;2022-11-21T06:12:28;9.73;;;5.50;;
50531;SDS011;36483;37.396;-122.212;2022-11-21T06:14:54;8.75;;;5.50;;
50531;SDS011;36483;37.396;-122.212;2022-11-21T06:17:20;9.13;;;5.18;;
50531;SDS011;36483;37.396;-122.212;2022-11-21T06:19:46;9.18;;;5.60;;
50531;SDS011;36483;37.396;-122.212;2022-11-21T06:22:12;8.38;;;5.05;;
50531;SDS011;36483;37.396;-122.212;2022-11-21T06:24:38;7.93;;;5.05;;
50531;SDS011;36483;37.396;-122.212;2022-11-21T06:27:04;9.02;;;4.88;;
50531;SDS011;36483;37.396;-122.212;2022-11-21T06:29:30;6.88;;;4.75;;
50531;SDS011;36483;37.396;-122.212;2022-11-21T06:31:56;9.32;;;5.20;;
50531;SDS011;36483;37.396;-122.212;2022-11-21T06:34:24;8.48;;;4.75;;
50531;SDS011;36483;37.396;-122.212;2022-11-21T06:36:51;10.88;;;5.40;;
50531;SDS011;36483;37.396;-122.212;2022-11-21T06:39:17;8.82;;;5.20;;
50531;SDS011;36483;37.396;-122.212;2022-11-21T06:41:43;7.80;;;4.90;;
50531;SDS011;36483;37.396;-122.212;2022-11-21T06:44:16;8.90;;;5.32;;
50531;SDS011;36483;37.396;-122.212;2022-11-21T06:46:42;8.18;;;4.88;;
50531;SDS011;36483;37.396;-122.212;2022-11-21T06:49:09;8.23;;;4.78;;
50531;SDS011;36483;37.396;-122.212;2022-11-21T06:51:35;8.57;;;4.82;;
50531;SDS011;36483;37.396;-122.212;2022-11-21T06:54:01;8.02;;;4.93;;
50531;SDS011;36483;37.396;-122.212;2022-11-21T06:56:29;10.63;;;5.18;;
50531;SDS011;36483;37.396;-122.212;2022-11-21T06:58:55;7.88;;;4.43;;
50531;SDS011;36483;37.396;-122.212;2022-11-21T07:01:22;7.60;;;4.82;;
50531;SDS011;36483;37.396;-122.212;2022-11-21T07:03:48;8.38;;;4.57;;
50531;SDS011;36483;37.396;-122.212;2022-11-21T07:06:15;6.85;;;4.63;;
50531;SDS011;36483;37.396;-122.212;2022-11-21T07:08:41;11.85;;;5.38;;
50531;SDS011;36483;37.396;-122.212;2022-11-21T07:11:08;7.03;;;4.53;;
50531;SDS011;36483;37.396;-122.212;2022-11-21T07:13:36;6.72;;;4.72;;
50531;SDS011;36483;37.396;-122.212;2022-11-21T07:16:03;9.20;;;5.03;;
50531;SDS011;36483;37.396;-122.212;2022-11-21T07:18:30;8.23;;;5.00;;
50531;SDS011;36483;37.396;-122.212;2022-11-21T07:21:03;8.80;;;5.07;;
50531;SDS011;36483;37.396;-122.212;2022-11-21T07:23:31;7.80;;;5.35;;
50531;SDS011;36483;37.396;-122.212;2022-11-21T07:26:01;7.63;;;4.85;;
50531;SDS011;36483;37.396;-122.212;2022-11-21T07:28:32;8.75;;;4.90;;
50531;SDS011;36483;37.396;-122.212;2022-11-21T07:30:59;7.43;;;4.57;;
50531;SDS011;36483;37.396;-122.212;2022-11-21T07:33:25;8.05;;;4.93;;
50531;SDS011;36483;37.396;-122.212;2022-11-21T07:35:54;7.60;;;4.78;;
50531;SDS011;36483;37.396;-122.212;2022-11-21T07:38:22;7.75;;;4.72;;
50531;SDS011;36483;37.396;-122.212;2022-11-21T07:40:48;8.38;;;4.82;;
50531;SDS011;36483;37.396;-122.212;2022-11-21T07:43:14;10.55;;;5.47;;
50531;SDS011;36483;37.396;-122.212;2022-11-21T07:45:40;9.50;;;5.30;;
50531;SDS011;36483;37.396;-122.212;2022-11-21T07:48:07;7.40;;;4.90;;
50531;SDS011;36483;37.396;-122.212;2022-11-21T07:50:34;8.77;;;5.68;;
50531;SDS011;36483;37.396;-122.212;2022-11-21T07:53:01;8.73;;;5.40;;
50531;SDS011;36483;37.396;-122.212;2022-11-21T07:55:29;7.65;;;5.00;;
50531;SDS011;36483;37.396;-122.212;2022-11-21T07:58:05;9.50;;;5.40;;
50531;SDS011;36483;37.396;-122.212;2022-11-21T08:00:36;13.45;;;5.93;;
50531;SDS011;36483;37.396;-122.212;2022-11-21T08:03:03;9.73;;;5.80;;
50531;SDS011;36483;37.396;-122.212;2022-11-21T08:05:34;11.10;;;5.65;;
50531;SDS011;36483;37.396;-122.212;2022-11-21T08:08:04;9.32;;;5.50;;
50531;SDS011;36483;37.396;-122.212;2022-11-21T08:10:31;10.40;;;6.05;;
50531;SDS011;36483;37.396;-122.212;2022-11-21T08:12:57;10.18;;;5.93;;
50531;SDS011;36483;37.396;-122.212;2022-11-21T08:15:23;10.93;;;6.07;;
50531;SDS011;36483;37.396;-122.212;2022-11-21T08:17:49;11.98;;;5.97;;
50531;SDS011;36483;37.396;-122.212;2022-11-21T08:20:15;9.30;;;5.97;;
50531;SDS011;36483;37.396;-122.212;2022-11-21T08:22:42;10.88;;;5.95;;
50531;SDS011;36483;37.396;-122.212;2022-11-21T08:25:08;10.57;;;5.95;;
50531;SDS011;36483;37.396;-122.212;2022-11-21T08:27:36;11.90;;;6.40;;
50531;SDS011;36483;37.396;-122.212;2022-11-21T08:30:04;11.70;;;6.28;;
50531;SDS011;36483;37.396;-122.212;2022-11-21T08:32:34;9.10;;;5.60;;
50531;SDS011;36483;37.396;-122.212;2022-11-21T08:35:00;14.05;;;6.63;;
50531;SDS011;36483;37.396;-122.212;2022-11-21T08:37:26;9.85;;;5.47;;
50531;SDS011;36483;37.396;-122.212;2022-11-21T08:39:56;14.07;;;6.60;;
50531;SDS011;36483;37.396;-122.212;2022-11-21T08:42:25;9.55;;;6.38;;
50531;SDS011;36483;37.396;-122.212;2022-11-21T08:44:51;12.02;;;6.38;;
50531;SDS011;36483;37.396;-122.212;2022-11-21T08:47:17;9.73;;;6.45;;
50531;SDS011;36483;37.396;-122.212;2022-11-21T08:49:44;12.23;;;6.05;;
50531;SDS011;36483;37.396;-122.212;2022-11-21T08:52:11;13.00;;;6.20;;
50531;SDS011;36483;37.396;-122.212;2022-11-21T08:54:37;12.05;;;6.72;;
50531;SDS011;36483;37.396;-122.212;2022-11-21T08:57:03;12.20;;;6.07;;
50531;SDS011;36483;37.396;-122.212;2022-11-21T08:59:29;10.10;;;6.03;;
50531;SDS011;36483;37.396;-122.212;2022-11-21T09:01:55;10.15;;;6.15;;
50531;SDS011;36483;37.396;-122.212;2022-11-21T09:04:23;14.07;;;6.88;;
50531;SDS011;36483;37.396;-122.212;2022-11-21T09:06:49;12.52;;;6.55;;
50531;SDS011;36483;37.396;-122.212;2022-11-21T09:09:16;13.60;;;6.20;;
50531;SDS011;36483;37.396;-122.212;2022-11-21T09:11:42;11.00;;;6.50;;
50531;SDS011;36483;37.396;-122.212;2022-11-21T09:14:08;10.77;;;6.55;;
50531;SDS011;36483;37.396;-122.212;2022-11-21T09:16:52;11.77;;;6.43;;
50531;SDS011;36483;37.396;-122.212;2022-11-21T09:19:37;12.73;;;6.90;;
50531;SDS011;36483;37.396;-122.212;2022-11-21T09:22:03;12.13;;;6.95;;
50531;SDS011;36483;37.396;-122.212;2022-11-21T09:24:29;12.50;;;7.10;;
50531;SDS011;36483;37.396;-122.212;2022-11-21T09:26:55;9.82;;;6.90;;
50531;SDS011;36483;37.396;-122.212;2022-11-21T09:29:21;13.00;;;7.10;;
50531;SDS011;36483;37.396;-122.212;2022-11-21T09:31:47;11.30;;;6.40;;
50531;SDS011;36483;37.396;-122.212;2022-11-21T09:34:13;12.60;;;7.07;;
50531;SDS011;36483;37.396;-122.212;2022-11-21T09:36:39;13.55;;;6.90;;
50531;SDS011;36483;37.396;-122.212;2022-11-21T09:39:05;11.25;;;7.15;;
50531;SDS011;36483;37.396;-122.212;2022-11-21T09:47:29;15.25;;;7.63;;
50531;SDS011;36483;37.396;-122.212;2022-11-21T09:50:04;11.05;;;6.80;;
50531;SDS011;36483;37.396;-122.212;2022-11-21T09:52:45;13.93;;;7.35;;
50531;SDS011;36483;37.396;-122.212;2022-11-21T09:55:28;9.93;;;6.63;;
50531;SDS011;36483;37.396;-122.212;2022-11-21T09:58:05;11.63;;;7.55;;
50531;SDS011;36483;37.396;-122.212;2022-11-21T10:00:39;13.07;;;7.25;;
50531;SDS011;36483;37.396;-122.212;2022-11-21T10:03:07;12.43;;;7.00;;
50531;SDS011;36483;37.396;-122.212;2022-11-21T10:05:37;13.25;;;6.88;;
50531;SDS011;36483;37.396;-122.212;2022-11-21T10:11:10;14.48;;;7.15;;
50531;SDS011;36483;37.396;-122.212;2022-11-21T10:28:15;11.63;;;6.97;;
50531;SDS011;36483;37.396;-122.212;2022-11-21T10:30:45;13.57;;;7.57;;
50531;SDS011;36483;37.396;-122.212;2022-11-21T10:33:13;14.52;;;7.85;;
50531;SDS011;36483;37.396;-122.212;2022-11-21T10:35:43;11.90;;;6.43;;
50531;SDS011;36483;37.396;-122.212;2022-11-21T10:38:22;13.32;;;8.10;;
50531;SDS011;36483;37.396;-122.212;2022-11-21T10:40:51;13.48;;;7.20;;
50531;SDS011;36483;37.396;-122.212;2022-11-21T10:46:22;13.10;;;7.82;;
50531;SDS011;36483;37.396;-122.212;2022-11-21T10:48:52;15.63;;;7.82;;
50531;SDS011;36483;37.396;-122.212;2022-11-21T10:54:50;11.93;;;7.28;;
50531;SDS011;36483;37.396;-122.212;2022-11-21T10:57:35;11.85;;;7.07;;
50531;SDS011;36483;37.396;-122.212;2022-11-21T11:02:38;11.13;;;6.68;;
50531;SDS011;36483;37.396;-122.212;2022-11-21T11:05:25;13.40;;;7.20;;
50531;SDS011;36483;37.396;-122.212;2022-11-21T11:10:30;11.10;;;6.70;;
50531;SDS011;36483;37.396;-122.212;2022-11-21T11:12:57;11.93;;;7.20;;
50531;SDS011;36483;37.396;-122.212;2022-11-21T11:18:26;12.65;;;7.32;;
50531;SDS011;36483;37.396;-122.212;2022-11-21T11:20:53;14.07;;;7.20;;
50531;SDS011;36483;37.396;-122.212;2022-11-21T11:23:39;13.88;;;7.55;;
50531;SDS011;36483;37.396;-122.212;2022-11-21T11:26:17;11.60;;;7.15;;
50531;SDS011;36483;37.396;-122.212;2022-11-21T11:28:45;14.18;;;7.65;;
50531;SDS011;36483;37.396;-122.212;2022-11-21T11:31:12;14.13;;;7.85;;
50531;SDS011;36483;37.396;-122.212;2022-11-21T11:33:39;11.00;;;6.90;;
50531;SDS011;36483;37.396;-122.212;2022-11-21T11:38:40;12.10;;;7.40;;
50531;SDS011;36483;37.396;-122.212;2022-11-21T11:44:22;10.35;;;6.80;;
50531;SDS011;36483;37.396;-122.212;2022-11-21T11:47:17;11.85;;;6.82;;
50531;SDS011;36483;37.396;-122.212;2022-11-21T11:49:57;11.38;;;7.40;;
50531;SDS011;36483;37.396;-122.212;2022-11-21T11:55:19;11.40;;;6.57;;
50531;SDS011;36483;37.396;-122.212;2022-11-21T11:57:49;14.30;;;7.30;;
50531;SDS011;36483;37.396;-122.212;2022-11-21T12:00:25;12.10;;;7.20;;
50531;SDS011;36483;37.396;-122.212;2022-11-21T12:05:59;11.93;;;7.50;;
50531;SDS011;36483;37.396;-122.212;2022-11-21T12:08:32;10.88;;;7.25;;
50531;SDS011;36483;37.396;-122.212;2022-11-21T12:11:09;14.02;;;7.30;;
50531;SDS011;36483;37.396;-122.212;2022-11-21T12:14:06;12.43;;;6.88;;
50531;SDS011;36483;37.396;-122.212;2022-11-21T12:17:07;15.45;;;7.32;;
50531;SDS011;36483;37.396;-122.212;2022-11-21T12:19:35;13.05;;;7.18;;
50531;SDS011;36483;37.396;-122.212;2022-11-21T12:22:02;15.10;;;7.70;;
50531;SDS011;36483;37.396;-122.212;2022-11-21T12:24:32;12.02;;;6.95;;
50531;SDS011;36483;37.396;-122.212;2022-11-21T12:27:03;13.75;;;7.55;;
50531;SDS011;36483;37.396;-122.212;2022-11-21T12:44:21;9.35;;;6.07;;
50531;SDS011;36483;37.396;-122.212;2022-11-21T12:48:17;11.52;;;6.68;;
50531;SDS011;36483;37.396;-122.212;2022-11-21T12:53:49;9.50;;;6.70;;
50531;SDS011;36483;37.396;-122.212;2022-11-21T12:59:19;11.68;;;6.60;;
50531;SDS011;36483;37.396;-122.212;2022-11-21T13:04:43;9.73;;;6.22;;
50531;SDS011;36483;37.396;-122.212;2022-11-21T13:07:11;12.05;;;6.55;;
50531;SDS011;36483;37.396;-122.212;2022-11-21T13:09:39;11.32;;;6.65;;
50531;SDS011;36483;37.396;-122.212;2022-11-21T13:14:50;9.98;;;6.10;;
50531;SDS011;36483;37.396;-122.212;2022-11-21T13:27:42;9.52;;;6.28;;
50531;SDS011;36483;37.396;-122.212;2022-11-21T13:35:54;11.20;;;6.30;;
50531;SDS011;36483;37.396;-122.212;2022-11-21T13:38:17;8.60;;;6.30;;
50531;SDS011;36483;37.396;-122.212;2022-11-21T13:40:43;8.85;;;5.97;;
50531;SDS011;36483;37.396;-122.212;2022-11-21T13:43:28;10.38;;;6.13;;
50531;SDS011;36483;37.396;-122.212;2022-11-21T13:45:55;9.25;;;6.28;;
50531;SDS011;36483;37.396;-122.212;2022-11-21T13:57:03;9.95;;;5.63;;
50531;SDS011;36483;37.396;-122.212;2022-11-21T14:05:05;11.43;;;6.32;;
50531;SDS011;36483;37.396;-122.212;2022-11-21T14:07:38;9.23;;;6.07;;
50531;SDS011;36483;37.396;-122.212;2022-11-21T14:10:05;11.02;;;6.22;;
50531;SDS011;36483;37.396;-122.212;2022-11-21T14:12:46;9.68;;;5.78;;
50531;SDS011;36483;37.396;-122.212;2022-11-21T14:23:00;10.13;;;6.60;;
50531;SDS011;36483;37.396;-122.212;2022-11-21T14:25:36;11.10;;;5.85;;
50531;SDS011;36483;37.396;-122.212;2022-11-21T14:28:24;11.25;;;5.93;;
50531;SDS011;36483;37.396;-122.212;2022-11-21T14:30:55;8.98;;;6.00;;
50531;SDS011;36483;37.396;-122.212;2022-11-21T14:33:34;10.23;;;6.03;;
50531;SDS011;36483;37.396;-122.212;2022-11-21T14:36:06;12.07;;;6.32;;
50531;SDS011;36483;37.396;-122.212;2022-11-21T14:39:06;12.75;;;6.35;;
50531;SDS011;36483;37.396;-122.212;2022-11-21T14:41:37;10.48;;;6.15;;
50531;SDS011;36483;37.396;-122.212;2022-11-21T14:51:37;9.15;;;5.88;;
50531;SDS011;36483;37.396;-122.212;2022-11-21T14:54:03;8.52;;;5.57;;
50531;SDS011;36483;37.396;-122.212;2022-11-21T14:56:29;8.57;;;5.72;;
50531;SDS011;36483;37.396;-122.212;2022-11-21T14:58:57;8.98;;;5.15;;
50531;SDS011;36483;37.396;-122.212;2022-11-21T15:01:30;8.25;;;5.75;;
50531;SDS011;36483;37.396;-122.212;2022-11-21T15:03:58;9.48;;;5.65;;
50531;SDS011;36483;37.396;-122.212;2022-11-21T15:06:41;9.30;;;5.50;;
50531;SDS011;36483;37.396;-122.212;2022-11-21T15:09:12;9.15;;;5.82;;
50531;SDS011;36483;37.396;-122.212;2022-11-21T15:14:25;7.00;;;4.68;;
50531;SDS011;36483;37.396;-122.212;2022-11-21T15:17:15;7.07;;;5.10;;
50531;SDS011;36483;37.396;-122.212;2022-11-21T15:19:44;8.98;;;5.25;;
50531;SDS011;36483;37.396;-122.212;2022-11-21T15:22:20;9.55;;;5.45;;
50531;SDS011;36483;37.396;-122.212;2022-11-21T15:24:50;9.35;;;5.10;;
50531;SDS011;36483;37.396;-122.212;2022-11-21T15:27:42;10.45;;;4.93;;
50531;SDS011;36483;37.396;-122.212;2022-11-21T15:38:30;9.20;;;5.00;;
50531;SDS011;36483;37.396;-122.212;2022-11-21T15:40:58;10.80;;;5.65;;
50531;SDS011;36483;37.396;-122.212;2022-11-21T15:46:01;8.90;;;5.07;;
50531;SDS011;36483;37.396;-122.212;2022-11-21T15:48:28;8.13;;;5.55;;
50531;SDS011;36483;37.396;-122.212;2022-11-21T15:50:55;7.85;;;5.07;;
50531;SDS011;36483;37.396;-122.212;2022-11-21T15:53:21;10.63;;;5.25;;
50531;SDS011;36483;37.396;-122.212;2022-11-21T15:55:47;9.50;;;5.30;;
50531;SDS011;36483;37.396;-122.212;2022-11-21T15:58:13;8.38;;;5.38;;
50531;SDS011;36483;37.396;-122.212;2022-11-21T16:00:39;7.97;;;5.65;;
50531;SDS011;36483;37.396;-122.212;2022-11-21T16:03:05;8.25;;;5.45;;
50531;SDS011;36483;37.396;-122.212;2022-11-21T16:05:32;8.93;;;5.40;;
50531;SDS011;36483;37.396;-122.212;2022-11-21T16:07:58;9.07;;;5.85;;
50531;SDS011;36483;37.396;-122.212;2022-11-21T16:10:24;9.90;;;5.50;;
50531;SDS011;36483;37.396;-122.212;2022-11-21T16:12:50;10.10;;;5.93;;
50531;SDS011;36483;37.396;-122.212;2022-11-21T16:15:16;10.52;;;6.03;;
50531;SDS011;36483;37.396;-122.212;2022-11-21T16:17:42;12.25;;;5.65;;
50531;SDS011;36483;37.396;-122.212;2022-11-21T16:20:09;9.07;;;5.55;;
50531;SDS011;36483;37.396;-122.212;2022-11-21T16:22:35;8.88;;;5.60;;
50531;SDS011;36483;37.396;-122.212;2022-11-21T16:25:02;11.02;;;5.55;;
50531;SDS011;36483;37.396;-122.212;2022-11-21T16:27:28;8.02;;;5.72;;
50531;SDS011;36483;37.396;-122.212;2022-11-21T16:29:56;8.00;;;5.20;;
50531;SDS011;36483;37.396;-122.212;2022-11-21T16:32:25;9.40;;;5.43;;
50531;SDS011;36483;37.396;-122.212;2022-11-21T16:34:51;8.52;;;5.40;;
50531;SDS011;36483;37.396;-122.212;2022-11-21T16:37:19;9.40;;;5.35;;
50531;SDS011;36483;37.396;-122.212;2022-11-21T16:39:45;9.63;;;5.82;;